Deer Park, AL (36529)

6:45 PM CDT on July 04, 2015 (GMT -0500)
York Hill Gulfcrest, Alabama | | Change Station
CLOSE
Current Station
Personal Weather Station
Location: Chunchula, AL
Elevation: 190 ft
Nearby Weather Stations

Elev 190 ft 30.99 °N, 88.24 °W | Updated 12 minutes ago

Overcast
Overcast
72.3 °F
Feels Like 72.3 °F
N
0.0
Wind Variable Wind from SSW

Today
High -- | Low -- °F
--% Chance of Precip.
Yesterday
High -- | Low -- °F
Precip. -- in
5:53 AM 8:01 PM
Waning Gibbous, 89% visible
Pressure 30.09 in
Visibility 8.0 miles
Clouds Few 1700 ft
Dew Point 70 °F
Humidity 94%
Rainfall 0.36 in
Snow Depth Not available.
UV 2 out of 12
Pollen 2.10 out of 12
Air Quality Not available.
Flu Activity Not available.
METAR KMOB 042256Z 33003KT 8SM FEW017 22/20 A3009 RMK AO2 LTG DSNT ALQDS RAB2159E12B32E43 TSB19E42 SLP187 P0002 T02220200

More Conditions Fewer Conditions

Pressure 30.09 in
Visibility 8.0 miles
Clouds Few 1700 ft
Dew Point 70 °F
Humidity 94%
Rainfall 0.36 in
Snow Depth Not available.
UV 2 out of 12
Pollen 2.10 out of 12
Air Quality Not available.
Flu Activity Not available.
METAR KMOB 042256Z 33003KT 8SM FEW017 22/20 A3009 RMK AO2 LTG DSNT ALQDS RAB2159E12B32E43 TSB19E42 SLP187 P0002 T02220200

More Conditions Fewer Conditions

10-Day Weather Forecast

×

Almanac

Astronomy

Jul. 04, 2015 Rise Set
Actual Time
Civil Twilight
Nautical Twilight
Astronomical Twilight
Moon
Length of Visible Light
Length of Day
Tomorrow will be .
, % of the Moon is Illuminated

Today's Extremes

State Highs State Lows

Community

WunderPhotos

Upload Photos

1,835,117 photos uploaded!

WunderBlogs® & News

Nearby

Air Quality

  Air Quality AQ Index Pollutant
Not available.

Snow Depth

Station Depth Elevation

Earthquake Activity

City Distance Mag. Time & Date
Minimum magnitude displayed is 2.5.

Coastal Water Temperatures

Place Temperature

Stations

Nearby Weather Stations

Station Location Temp. Windchill Dew Point Humidity Wind Precip. Elev Updated Type